createdAt,value
2019-04-30T00:01:55.903Z,22.30
2019-04-30T00:04:40.297Z,22.80
2019-04-30T00:07:10.243Z,26.50
2019-04-30T00:09:39.713Z,22.03
2019-04-30T00:12:09.136Z,25.77
2019-04-30T00:14:41.270Z,26.20
2019-04-30T00:17:10.732Z,24.03
2019-04-30T00:19:40.012Z,25.13
2019-04-30T00:22:09.223Z,24.00
2019-04-30T00:24:39.805Z,23.97
2019-04-30T00:27:09.283Z,23.60
2019-04-30T00:29:38.401Z,28.87
2019-04-30T00:32:08.034Z,24.30
2019-04-30T00:34:39.406Z,24.03
2019-04-30T00:37:13.740Z,23.70
2019-04-30T00:39:39.645Z,26.23
2019-04-30T00:42:08.880Z,25.30
2019-04-30T00:44:38.016Z,24.60
2019-04-30T00:47:08.391Z,25.90
2019-04-30T00:49:37.640Z,25.10
2019-04-30T00:52:06.776Z,27.97
2019-04-30T00:54:35.887Z,25.57
2019-04-30T00:57:07.663Z,29.90
2019-04-30T00:59:39.798Z,28.37
2019-04-30T01:02:19.928Z,28.07
2019-04-30T01:04:49.030Z,24.07
2019-04-30T01:07:18.256Z,27.20
2019-04-30T01:09:49.819Z,26.00
2019-04-30T01:12:27.701Z,28.93
2019-04-30T01:14:50.535Z,26.27
2019-04-30T01:17:19.655Z,26.27
2019-04-30T01:19:54.270Z,27.17
2019-04-30T01:22:27.771Z,41.73
2019-04-30T01:24:52.369Z,25.13
2019-04-30T01:27:21.582Z,31.43
2019-04-30T01:29:50.973Z,27.53
2019-04-30T01:32:21.085Z,29.30
2019-04-30T01:34:53.810Z,32.37
2019-04-30T01:37:28.678Z,27.70
2019-04-30T01:39:52.145Z,26.13
2019-04-30T01:42:21.401Z,31.03
2019-04-30T01:44:53.632Z,30.90
2019-04-30T01:47:27.798Z,29.63
2019-04-30T01:49:55.922Z,28.53
2019-04-30T01:52:23.240Z,29.00
2019-04-30T01:54:52.357Z,27.90
2019-04-30T01:57:32.620Z,28.10
2019-04-30T02:00:06.083Z,25.30
2019-04-30T02:02:36.113Z,27.70
2019-04-30T02:05:08.803Z,27.70
2019-04-30T02:07:40.150Z,27.40
2019-04-30T02:10:08.879Z,26.17
2019-04-30T02:12:39.275Z,26.80
2019-04-30T02:15:09.479Z,25.30
2019-04-30T02:17:38.904Z,24.60
2019-04-30T02:20:08.979Z,24.93
2019-04-30T02:22:38.980Z,25.40
2019-04-30T02:25:09.633Z,28.37
2019-04-30T02:27:39.118Z,28.53
2019-04-30T02:30:11.185Z,25.77
2019-04-30T02:32:40.708Z,29.47
2019-04-30T02:35:25.120Z,27.33
2019-04-30T02:38:12.125Z,31.50
2019-04-30T02:40:42.644Z,28.33
2019-04-30T02:43:12.499Z,27.00
2019-04-30T02:45:42.265Z,30.60
2019-04-30T02:48:12.112Z,30.03
2019-04-30T02:50:42.832Z,27.17
2019-04-30T02:53:50.458Z,27.80
2019-04-30T02:56:21.554Z,31.20
2019-04-30T02:58:50.950Z,26.37
2019-04-30T03:01:20.609Z,23.73
2019-04-30T03:03:50.314Z,26.17
2019-04-30T03:06:23.142Z,29.50
2019-04-30T03:08:51.421Z,25.97
2019-04-30T03:11:21.076Z,24.63
2019-04-30T03:13:50.356Z,25.33
2019-04-30T03:16:23.772Z,23.87
2019-04-30T03:19:10.760Z,23.57
2019-04-30T03:21:42.925Z,23.23
2019-04-30T03:24:12.121Z,23.90
2019-04-30T03:26:41.254Z,21.00
2019-04-30T03:29:11.521Z,22.87
2019-04-30T03:31:44.070Z,25.70
2019-04-30T03:34:18.307Z,23.93
2019-04-30T03:36:42.771Z,23.80
2019-04-30T03:39:11.956Z,24.10
2019-04-30T03:41:41.724Z,20.83
2019-04-30T03:44:21.846Z,25.60
2019-04-30T03:46:41.882Z,23.00
2019-04-30T03:49:13.388Z,23.83
2019-04-30T03:51:42.015Z,21.50
2019-04-30T03:54:11.276Z,22.60
2019-04-30T03:56:41.370Z,18.33
2019-04-30T03:59:11.001Z,18.80
2019-04-30T04:01:59.583Z,19.80
2019-04-30T04:04:52.682Z,17.20
2019-04-30T04:07:30.014Z,20.43
2019-04-30T04:10:11.703Z,22.33
2019-04-30T04:12:40.820Z,20.57
2019-04-30T04:15:10.605Z,19.50
2019-04-30T04:17:40.045Z,20.40
2019-04-30T04:20:10.665Z,22.13
2019-04-30T04:22:40.479Z,24.07
2019-04-30T04:25:13.325Z,21.70
2019-04-30T04:27:41.143Z,31.33
2019-04-30T04:30:10.874Z,24.37
2019-04-30T04:32:40.891Z,23.40
2019-04-30T04:35:12.745Z,25.10
2019-04-30T04:37:41.287Z,24.60
2019-04-30T04:40:10.766Z,27.70
2019-04-30T04:42:39.884Z,28.10
2019-04-30T04:45:09.892Z,26.07
2019-04-30T04:47:40.141Z,26.90
2019-04-30T04:50:10.703Z,31.33
2019-04-30T04:52:39.883Z,29.00
2019-04-30T04:55:10.022Z,27.40
2019-04-30T04:57:40.223Z,29.20
2019-04-30T05:00:10.488Z,29.53
2019-04-30T05:02:50.616Z,29.47
2019-04-30T05:05:19.908Z,29.87
2019-04-30T05:07:49.034Z,29.93
2019-04-30T05:10:19.245Z,32.00
2019-04-30T05:12:50.599Z,32.33
2019-04-30T05:15:19.578Z,31.73
2019-04-30T05:17:49.449Z,32.27
2019-04-30T05:20:19.490Z,28.33
2019-04-30T05:22:49.003Z,35.53
2019-04-30T05:25:18.800Z,35.47
2019-04-30T05:27:48.875Z,36.87
2019-04-30T05:30:20.006Z,36.00
2019-04-30T05:32:50.848Z,35.30
2019-04-30T05:35:20.212Z,38.67
2019-04-30T05:37:49.589Z,39.20
2019-04-30T05:40:19.040Z,37.97
2019-04-30T05:42:49.647Z,38.17
2019-04-30T05:45:19.410Z,40.17
2019-04-30T05:47:50.492Z,35.70
2019-04-30T05:50:20.104Z,37.90
2019-04-30T05:52:49.505Z,38.93
2019-04-30T05:55:19.871Z,37.13
2019-04-30T05:57:55.991Z,35.07
2019-04-30T06:00:20.133Z,38.97
2019-04-30T06:02:50.614Z,37.53
2019-04-30T06:05:19.917Z,35.97
2019-04-30T06:07:49.575Z,36.27
2019-04-30T06:10:39.606Z,37.03
2019-04-30T06:13:16.041Z,34.97
2019-04-30T06:15:52.128Z,39.33
2019-04-30T06:18:21.376Z,33.77
2019-04-30T06:20:50.519Z,36.93
2019-04-30T06:23:19.729Z,35.23
2019-04-30T06:25:59.469Z,38.57
2019-04-30T06:28:23.065Z,34.33
2019-04-30T06:30:52.682Z,36.87
2019-04-30T06:33:21.860Z,33.13
2019-04-30T06:35:51.841Z,36.17
2019-04-30T06:38:21.036Z,36.30
2019-04-30T06:40:50.208Z,40.03
2019-04-30T06:43:21.532Z,41.93
2019-04-30T06:45:52.148Z,33.63
2019-04-30T06:48:22.087Z,42.47
2019-04-30T06:50:51.305Z,33.43
2019-04-30T06:53:20.446Z,37.20
2019-04-30T06:55:49.792Z,35.53
2019-04-30T06:58:20.498Z,35.03
2019-04-30T07:00:49.868Z,41.20
2019-04-30T07:03:19.291Z,37.10
2019-04-30T07:05:48.971Z,35.70
2019-04-30T07:08:42.144Z,34.20
2019-04-30T07:11:31.765Z,33.73
2019-04-30T07:14:00.905Z,35.00
2019-04-30T07:16:30.095Z,37.27
2019-04-30T07:18:59.227Z,33.03
2019-04-30T07:21:31.218Z,34.73
2019-04-30T07:23:59.670Z,33.10
2019-04-30T07:26:29.285Z,32.57
2019-04-30T07:29:02.249Z,32.93
2019-04-30T07:31:29.719Z,30.53
2019-04-30T07:33:59.463Z,36.97
2019-04-30T07:36:43.499Z,36.30
2019-04-30T07:39:00.146Z,37.43
2019-04-30T07:41:31.234Z,39.07
2019-04-30T07:44:00.410Z,34.43
2019-04-30T07:46:30.141Z,31.57
2019-04-30T07:49:00.411Z,34.83
2019-04-30T07:51:31.904Z,35.13
2019-04-30T07:54:00.421Z,36.20
2019-04-30T07:56:37.390Z,34.27
2019-04-30T07:59:02.669Z,36.07
2019-04-30T08:01:31.312Z,43.00
2019-04-30T08:04:22.759Z,38.87
2019-04-30T08:06:51.981Z,33.53
2019-04-30T08:09:22.253Z,32.87
2019-04-30T08:11:51.571Z,36.03
2019-04-30T08:14:21.228Z,37.60
2019-04-30T08:16:51.143Z,44.67
2019-04-30T08:19:20.504Z,37.10
2019-04-30T08:21:49.751Z,31.90
2019-04-30T08:24:19.343Z,35.60
2019-04-30T08:26:49.391Z,31.57
2019-04-30T08:29:19.510Z,33.37
2019-04-30T08:31:49.028Z,37.40
2019-04-30T08:34:20.087Z,37.03
2019-04-30T08:36:49.163Z,30.97
2019-04-30T08:39:19.729Z,41.47
2019-04-30T08:41:49.342Z,34.63
2019-04-30T08:44:20.811Z,37.30
2019-04-30T08:46:49.572Z,38.20
2019-04-30T08:49:20.856Z,39.27
2019-04-30T08:51:50.395Z,36.27
2019-04-30T08:54:20.292Z,39.80
2019-04-30T08:56:50.379Z,42.43
2019-04-30T08:59:19.664Z,38.13
2019-04-30T09:01:48.819Z,38.20
2019-04-30T09:04:19.964Z,41.10
2019-04-30T09:06:49.611Z,34.33
2019-04-30T09:09:20.811Z,39.13
2019-04-30T09:11:55.164Z,41.20
2019-04-30T09:14:20.913Z,36.60
2019-04-30T09:16:51.337Z,39.00
2019-04-30T09:19:21.283Z,36.23
2019-04-30T09:21:50.597Z,42.23
2019-04-30T09:24:19.824Z,33.20
2019-04-30T09:26:49.345Z,36.27
2019-04-30T09:29:19.124Z,36.20
2019-04-30T09:31:49.297Z,45.90
2019-04-30T09:34:21.037Z,41.20
2019-04-30T09:36:49.525Z,43.37
2019-04-30T09:39:22.858Z,37.20
2019-04-30T09:41:50.687Z,33.20
2019-04-30T09:44:19.873Z,45.53
2019-04-30T09:46:49.044Z,34.73
2019-04-30T09:49:19.479Z,33.20
2019-04-30T09:51:49.821Z,40.93
2019-04-30T09:54:20.257Z,35.03
2019-04-30T09:56:52.615Z,34.30
2019-04-30T09:59:20.810Z,32.57
2019-04-30T10:01:49.963Z,34.73
2019-04-30T10:04:20.463Z,36.67
2019-04-30T10:06:50.232Z,37.37
2019-04-30T10:09:19.767Z,33.77
2019-04-30T10:11:59.784Z,32.93
2019-04-30T10:14:28.924Z,32.73
2019-04-30T10:17:06.821Z,36.10
2019-04-30T10:19:36.052Z,41.47
2019-04-30T10:22:05.512Z,32.73
2019-04-30T10:24:34.671Z,36.10
2019-04-30T10:27:06.911Z,38.77
2019-04-30T10:29:35.155Z,38.10
2019-04-30T10:32:04.452Z,36.00
2019-04-30T10:34:33.624Z,39.13
2019-04-30T10:37:03.083Z,40.73
2019-04-30T10:39:32.401Z,33.80
2019-04-30T10:42:01.614Z,39.20
2019-04-30T10:44:30.839Z,38.87
2019-04-30T10:47:00.059Z,36.23
2019-04-30T10:49:29.338Z,35.37
2019-04-30T10:52:01.182Z,35.57
2019-04-30T10:54:30.482Z,33.70
2019-04-30T10:56:59.653Z,34.57
2019-04-30T10:59:28.799Z,33.90
2019-04-30T11:01:59.214Z,34.17
2019-04-30T11:04:28.736Z,32.63
2019-04-30T11:07:00.156Z,35.93
2019-04-30T11:09:31.033Z,39.53
2019-04-30T11:12:03.071Z,32.90
2019-04-30T11:14:33.000Z,33.63
2019-04-30T11:17:02.383Z,35.67
2019-04-30T11:19:32.058Z,36.20
2019-04-30T11:22:01.415Z,33.67
2019-04-30T11:24:38.145Z,38.87
2019-04-30T11:27:02.410Z,29.20
2019-04-30T11:29:32.004Z,35.20
2019-04-30T11:32:07.677Z,29.77
2019-04-30T11:34:37.167Z,34.67
2019-04-30T11:37:06.314Z,29.30
2019-04-30T11:39:36.712Z,33.93
2019-04-30T11:42:06.063Z,35.10
2019-04-30T11:44:35.194Z,30.77
2019-04-30T11:47:24.342Z,31.13
2019-04-30T11:49:53.692Z,36.30
2019-04-30T11:52:23.335Z,30.77
2019-04-30T11:54:54.618Z,30.33
2019-04-30T11:57:23.357Z,28.87
2019-04-30T11:59:52.717Z,28.87
2019-04-30T12:02:32.501Z,33.37
2019-04-30T12:05:01.769Z,32.60
2019-04-30T12:07:54.487Z,25.27
2019-04-30T12:10:30.850Z,24.87
2019-04-30T12:13:00.100Z,24.97
2019-04-30T12:15:29.339Z,28.37
2019-04-30T12:17:58.495Z,30.70
2019-04-30T12:20:27.748Z,26.53
2019-04-30T12:22:56.901Z,29.27
2019-04-30T12:25:26.115Z,25.00
2019-04-30T12:27:55.293Z,28.87
2019-04-30T12:30:24.912Z,25.20
2019-04-30T12:32:54.156Z,24.90
2019-04-30T12:35:23.405Z,26.10
2019-04-30T12:37:52.630Z,27.80
2019-04-30T12:40:28.865Z,26.93
2019-04-30T12:42:52.788Z,26.50
2019-04-30T12:45:22.090Z,27.43
2019-04-30T12:47:56.212Z,24.87
2019-04-30T12:50:39.228Z,26.30
2019-04-30T12:53:12.087Z,27.33
2019-04-30T12:55:51.463Z,25.80
2019-04-30T12:58:20.861Z,27.97
2019-04-30T13:00:50.224Z,23.37
2019-04-30T13:03:19.376Z,22.70
2019-04-30T13:05:50.650Z,34.40
2019-04-30T13:08:21.391Z,27.97
2019-04-30T13:10:51.000Z,26.27
2019-04-30T13:13:21.124Z,23.40
2019-04-30T13:15:50.546Z,19.83
2019-04-30T13:18:19.692Z,23.60
2019-04-30T13:20:49.227Z,24.73
2019-04-30T13:23:18.684Z,18.90
2019-04-30T13:25:51.240Z,20.60
2019-04-30T13:28:21.222Z,20.97
2019-04-30T13:30:51.567Z,24.13
2019-04-30T13:33:32.517Z,22.10
2019-04-30T13:36:01.644Z,14.20
2019-04-30T13:38:49.638Z,14.50
2019-04-30T13:41:30.133Z,13.50
2019-04-30T13:44:03.659Z,15.60
2019-04-30T13:46:32.883Z,16.90
2019-04-30T13:49:02.053Z,17.57
2019-04-30T13:51:31.201Z,15.83
2019-04-30T13:54:00.320Z,13.63
2019-04-30T13:56:29.507Z,15.93
2019-04-30T13:58:58.681Z,18.27
2019-04-30T14:01:29.456Z,20.10
2019-04-30T14:04:06.399Z,15.97
2019-04-30T14:06:38.899Z,14.23
2019-04-30T14:09:17.124Z,15.80
2019-04-30T14:11:46.292Z,16.97
2019-04-30T14:14:15.515Z,13.10
2019-04-30T14:16:44.724Z,16.80
2019-04-30T14:19:14.093Z,15.17
2019-04-30T14:21:43.349Z,18.63
2019-04-30T14:24:12.610Z,19.50
2019-04-30T14:26:41.861Z,16.93
2019-04-30T14:29:11.068Z,16.80
2019-04-30T14:31:40.209Z,14.97
2019-04-30T14:34:10.066Z,14.50
2019-04-30T14:36:39.398Z,14.70
2019-04-30T14:39:14.425Z,15.83
2019-04-30T14:41:41.249Z,15.80
2019-04-30T14:44:15.489Z,19.57
2019-04-30T14:47:04.339Z,13.57
2019-04-30T14:50:01.633Z,24.83
2019-04-30T14:52:23.220Z,13.10
2019-04-30T14:55:14.433Z,14.17
2019-04-30T14:58:02.608Z,14.97
2019-04-30T15:00:53.789Z,12.53
2019-04-30T15:03:23.904Z,12.03
2019-04-30T15:05:53.121Z,10.77
2019-04-30T15:08:22.316Z,10.70
2019-04-30T15:10:51.494Z,14.33
2019-04-30T15:13:20.644Z,15.07
2019-04-30T15:15:49.944Z,14.20
2019-04-30T15:18:19.289Z,16.40
2019-04-30T15:20:49.811Z,14.60
2019-04-30T15:23:44.165Z,15.20
2019-04-30T15:26:22.091Z,14.00
2019-04-30T15:28:44.401Z,17.83
2019-04-30T15:31:13.646Z,14.70
2019-04-30T15:34:03.174Z,14.10
2019-04-30T15:36:32.560Z,13.40
2019-04-30T15:39:30.855Z,10.43
2019-04-30T15:42:00.258Z,8.90
2019-04-30T15:44:29.597Z,12.20
2019-04-30T15:47:00.573Z,14.00
2019-04-30T15:49:29.776Z,11.70
2019-04-30T15:51:58.961Z,16.67
2019-04-30T15:54:29.266Z,11.03
2019-04-30T15:57:00.407Z,11.73
2019-04-30T15:59:34.384Z,11.23
2019-04-30T16:02:09.175Z,10.33
2019-04-30T16:04:55.956Z,10.83
2019-04-30T16:07:25.185Z,13.10
2019-04-30T16:10:01.723Z,15.07
2019-04-30T16:12:45.275Z,10.37
2019-04-30T16:15:14.738Z,12.73
2019-04-30T16:17:46.005Z,15.03
2019-04-30T16:20:16.310Z,15.13
2019-04-30T16:22:45.526Z,13.43
2019-04-30T16:25:14.708Z,13.60
2019-04-30T16:27:43.833Z,12.93
2019-04-30T16:30:13.641Z,13.53
2019-04-30T16:32:42.882Z,8.63
2019-04-30T16:35:12.100Z,13.07
2019-04-30T16:37:41.244Z,10.37
2019-04-30T16:40:10.577Z,12.20
2019-04-30T16:42:39.836Z,14.33
2019-04-30T16:45:09.408Z,12.50
2019-04-30T16:47:38.821Z,11.00
2019-04-30T16:50:09.128Z,13.77
2019-04-30T16:52:39.390Z,11.73
2019-04-30T16:55:09.288Z,13.27
2019-04-30T16:57:39.654Z,14.63
2019-04-30T17:00:10.697Z,13.40
2019-04-30T17:02:41.861Z,12.43
2019-04-30T17:05:33.390Z,12.13
2019-04-30T17:08:30.417Z,17.93
2019-04-30T17:11:09.380Z,17.03
2019-04-30T17:13:55.521Z,18.33
2019-04-30T17:16:25.104Z,17.50
2019-04-30T17:18:54.494Z,18.27
2019-04-30T17:21:23.647Z,14.90
2019-04-30T17:23:52.819Z,15.57
2019-04-30T17:26:21.968Z,21.23
2019-04-30T17:28:51.180Z,15.97
2019-04-30T17:31:20.606Z,16.63
2019-04-30T17:33:49.834Z,18.13
2019-04-30T17:36:18.985Z,15.90
2019-04-30T17:38:48.149Z,18.20
2019-04-30T17:41:17.422Z,15.13
2019-04-30T17:43:46.596Z,27.93
2019-04-30T17:46:15.815Z,15.10
2019-04-30T17:48:44.943Z,14.70
2019-04-30T17:51:14.104Z,17.50
2019-04-30T17:54:00.900Z,13.40
2019-04-30T17:56:30.250Z,15.83
2019-04-30T17:58:59.373Z,16.10
2019-04-30T18:01:28.799Z,15.83
2019-04-30T18:03:58.820Z,17.63
2019-04-30T18:06:28.186Z,15.50
2019-04-30T18:08:57.415Z,19.47
2019-04-30T18:11:26.634Z,15.30
2019-04-30T18:13:55.885Z,19.30
2019-04-30T18:16:25.322Z,16.40
2019-04-30T18:19:00.168Z,17.87
2019-04-30T18:21:36.360Z,18.07
2019-04-30T18:24:39.979Z,17.87
2019-04-30T18:27:15.451Z,16.73
2019-04-30T18:29:44.776Z,17.30
2019-04-30T18:32:14.461Z,18.70
2019-04-30T18:34:43.725Z,18.20
2019-04-30T18:37:12.961Z,18.87
2019-04-30T18:39:42.164Z,24.27
2019-04-30T18:42:11.424Z,16.00
2019-04-30T18:44:42.051Z,17.00
2019-04-30T18:47:11.276Z,18.50
2019-04-30T18:49:40.481Z,21.10
2019-04-30T18:52:09.714Z,18.27
2019-04-30T18:54:39.722Z,16.77
2019-04-30T18:57:09.400Z,21.03
2019-04-30T18:59:39.698Z,20.50
2019-04-30T19:02:11.272Z,18.57
2019-04-30T19:04:40.972Z,19.60
2019-04-30T19:07:48.847Z,25.37
2019-04-30T19:10:36.013Z,19.30
2019-04-30T19:13:23.157Z,22.20
2019-04-30T19:16:19.862Z,22.80
2019-04-30T19:18:48.095Z,26.70
2019-04-30T19:21:17.348Z,23.17
2019-04-30T19:23:48.605Z,30.63
2019-04-30T19:26:19.255Z,26.93
2019-04-30T19:28:49.275Z,24.80
2019-04-30T19:31:19.990Z,26.07
2019-04-30T19:33:49.411Z,31.40
2019-04-30T19:36:20.890Z,27.20
2019-04-30T19:38:50.705Z,28.20
2019-04-30T19:41:20.076Z,36.80
2019-04-30T19:43:50.059Z,34.63
2019-04-30T19:46:19.654Z,25.73
2019-04-30T19:48:50.644Z,27.80
2019-04-30T19:51:19.887Z,30.13
2019-04-30T19:53:49.257Z,33.83
2019-04-30T19:56:20.552Z,28.50
2019-04-30T19:59:01.557Z,32.00
2019-04-30T20:01:20.939Z,20.37
2019-04-30T20:03:50.584Z,30.13
2019-04-30T20:06:19.773Z,39.73
2019-04-30T20:08:51.105Z,25.57
2019-04-30T20:11:20.362Z,27.90
2019-04-30T20:13:49.584Z,21.60
2019-04-30T20:16:19.562Z,24.83
2019-04-30T20:18:49.107Z,23.23
2019-04-30T20:21:28.349Z,22.50
2019-04-30T20:23:51.017Z,23.10
2019-04-30T20:26:20.286Z,23.60
2019-04-30T20:28:49.416Z,34.73
2019-04-30T20:31:19.054Z,22.80
2019-04-30T20:33:48.955Z,24.00
2019-04-30T20:36:19.000Z,21.87
2019-04-30T20:39:19.440Z,31.80
2019-04-30T20:41:52.091Z,33.27
2019-04-30T20:44:21.353Z,34.70
2019-04-30T20:46:51.989Z,23.80
2019-04-30T20:49:21.237Z,33.40
2019-04-30T20:51:55.651Z,24.15
2019-04-30T20:54:21.387Z,26.10
2019-04-30T20:56:50.976Z,21.13
2019-04-30T20:59:20.526Z,28.63
2019-04-30T21:01:49.773Z,33.33
2019-04-30T21:04:20.754Z,28.10
2019-04-30T21:06:51.128Z,26.57
2019-04-30T21:09:20.337Z,26.03
2019-04-30T21:11:49.571Z,24.20
2019-04-30T21:14:19.387Z,30.20
2019-04-30T21:16:48.689Z,33.60
2019-04-30T21:19:17.950Z,26.23
2019-04-30T21:21:47.104Z,36.50
2019-04-30T21:24:16.294Z,32.27
2019-04-30T21:26:45.465Z,27.03
2019-04-30T21:29:16.019Z,34.33
2019-04-30T21:32:03.021Z,28.50
2019-04-30T21:34:50.185Z,28.63
2019-04-30T21:37:19.441Z,25.20
2019-04-30T21:39:50.178Z,23.77
2019-04-30T21:42:19.560Z,31.37
2019-04-30T21:44:48.747Z,29.87
2019-04-30T21:47:17.951Z,35.23
2019-04-30T21:49:47.088Z,31.80
2019-04-30T21:52:16.292Z,29.03
2019-04-30T21:54:45.449Z,33.03
2019-04-30T21:57:14.553Z,32.87
2019-04-30T21:59:43.751Z,30.67
2019-04-30T22:02:12.964Z,27.83
2019-04-30T22:04:42.110Z,33.60
2019-04-30T22:07:11.253Z,37.40
2019-04-30T22:09:41.880Z,30.33
2019-04-30T22:12:11.024Z,41.37
2019-04-30T22:14:40.257Z,30.47
2019-04-30T22:17:09.486Z,33.53
2019-04-30T22:19:38.639Z,33.80
2019-04-30T22:22:09.379Z,29.20
2019-04-30T22:24:38.943Z,38.57
2019-04-30T22:27:08.381Z,31.73
2019-04-30T22:29:41.967Z,39.43
2019-04-30T22:32:09.371Z,33.17
2019-04-30T22:34:38.634Z,36.10
2019-04-30T22:37:08.537Z,32.97
2019-04-30T22:40:01.380Z,33.77
2019-04-30T22:42:32.921Z,36.13
2019-04-30T22:45:07.113Z,33.10
2019-04-30T22:47:36.447Z,30.63
2019-04-30T22:50:07.425Z,31.90
2019-04-30T22:52:36.578Z,31.90
2019-04-30T22:55:06.125Z,30.27
2019-04-30T22:57:35.398Z,35.60
2019-04-30T23:00:09.569Z,34.57
2019-04-30T23:02:47.681Z,31.83
2019-04-30T23:05:17.678Z,34.43
2019-04-30T23:07:46.892Z,40.70
2019-04-30T23:10:17.901Z,32.37
2019-04-30T23:12:47.271Z,31.67
2019-04-30T23:15:18.762Z,37.40
2019-04-30T23:17:47.914Z,28.87
2019-04-30T23:20:17.697Z,29.47
2019-04-30T23:22:47.016Z,31.67
2019-04-30T23:25:16.205Z,34.53
2019-04-30T23:27:45.420Z,33.70
2019-04-30T23:30:14.667Z,32.07
2019-04-30T23:32:44.684Z,33.87
2019-04-30T23:35:13.969Z,33.60
2019-04-30T23:37:43.272Z,37.37
2019-04-30T23:40:25.976Z,34.17
2019-04-30T23:42:55.439Z,32.10
2019-04-30T23:45:24.595Z,32.73
2019-04-30T23:47:53.745Z,33.70
2019-04-30T23:50:22.952Z,36.97
2019-04-30T23:52:52.210Z,33.73
2019-04-30T23:55:21.337Z,32.50
2019-04-30T23:57:50.474Z,28.90
